sensor_id;sensor_type;location;lat;lon;timestamp;temperature;humidity
23869;DHT22;12115;47.128;15.422;2023-05-20T00:01:11;14.40;99.90
23869;DHT22;12115;47.128;15.422;2023-05-20T00:03:51;14.40;99.90
23869;DHT22;12115;47.128;15.422;2023-05-20T00:06:48;14.40;99.90
23869;DHT22;12115;47.128;15.422;2023-05-20T00:09:30;14.40;99.90
23869;DHT22;12115;47.128;15.422;2023-05-20T00:12:13;14.30;99.90
23869;DHT22;12115;47.128;15.422;2023-05-20T00:14:58;14.40;99.90
23869;DHT22;12115;47.128;15.422;2023-05-20T00:17:32;14.40;99.90
23869;DHT22;12115;47.128;15.422;2023-05-20T00:20:15;14.30;99.90
23869;DHT22;12115;47.128;15.422;2023-05-20T00:22:57;14.30;99.90
23869;DHT22;12115;47.128;15.422;2023-05-20T00:25:57;14.20;99.90
23869;DHT22;12115;47.128;15.422;2023-05-20T00:28:34;14.30;99.90
23869;DHT22;12115;47.128;15.422;2023-05-20T00:31:13;14.20;99.90
23869;DHT22;12115;47.128;15.422;2023-05-20T00:33:56;14.20;99.90
23869;DHT22;12115;47.128;15.422;2023-05-20T00:36:30;14.20;99.90
23869;DHT22;12115;47.128;15.422;2023-05-20T00:39:07;14.20;99.90
23869;DHT22;12115;47.128;15.422;2023-05-20T00:41:50;14.20;99.90
23869;DHT22;12115;47.128;15.422;2023-05-20T00:44:33;14.20;99.90
23869;DHT22;12115;47.128;15.422;2023-05-20T00:47:08;14.20;99.90
23869;DHT22;12115;47.128;15.422;2023-05-20T00:49:50;14.30;99.90
23869;DHT22;12115;47.128;15.422;2023-05-20T00:52:35;14.30;99.90
23869;DHT22;12115;47.128;15.422;2023-05-20T00:55:11;14.30;99.90
23869;DHT22;12115;47.128;15.422;2023-05-20T00:57:57;14.30;99.90
23869;DHT22;12115;47.128;15.422;2023-05-20T01:00:55;14.30;99.90
23869;DHT22;12115;47.128;15.422;2023-05-20T01:04:03;14.20;99.90
23869;DHT22;12115;47.128;15.422;2023-05-20T01:06:54;14.20;99.90
23869;DHT22;12115;47.128;15.422;2023-05-20T01:09:39;14.30;99.90
23869;DHT22;12115;47.128;15.422;2023-05-20T01:12:47;14.30;99.90
23869;DHT22;12115;47.128;15.422;2023-05-20T01:15:31;14.30;99.90
23869;DHT22;12115;47.128;15.422;2023-05-20T01:18:27;14.30;99.90
23869;DHT22;12115;47.128;15.422;2023-05-20T01:21:25;14.30;99.90
23869;DHT22;12115;47.128;15.422;2023-05-20T01:24:09;14.30;99.90
23869;DHT22;12115;47.128;15.422;2023-05-20T01:27:23;14.30;99.90
23869;DHT22;12115;47.128;15.422;2023-05-20T01:30:13;14.30;99.90
23869;DHT22;12115;47.128;15.422;2023-05-20T01:33:05;14.20;99.90
23869;DHT22;12115;47.128;15.422;2023-05-20T01:35:56;14.20;99.90
23869;DHT22;12115;47.128;15.422;2023-05-20T01:38:36;14.10;99.90
23869;DHT22;12115;47.128;15.422;2023-05-20T01:41:23;14.10;99.90
23869;DHT22;12115;47.128;15.422;2023-05-20T01:44:25;14.10;99.90
23869;DHT22;12115;47.128;15.422;2023-05-20T01:47:19;14.20;99.90
23869;DHT22;12115;47.128;15.422;2023-05-20T01:49:59;14.10;99.90
23869;DHT22;12115;47.128;15.422;2023-05-20T01:52:48;14.10;99.90
23869;DHT22;12115;47.128;15.422;2023-05-20T01:55:29;14.10;99.90
23869;DHT22;12115;47.128;15.422;2023-05-20T01:58:05;14.10;99.90
23869;DHT22;12115;47.128;15.422;2023-05-20T02:00:40;14.10;99.90
23869;DHT22;12115;47.128;15.422;2023-05-20T02:06:13;14.10;99.90
23869;DHT22;12115;47.128;15.422;2023-05-20T02:08:55;14.20;99.90
23869;DHT22;12115;47.128;15.422;2023-05-20T02:11:32;14.20;99.90
23869;DHT22;12115;47.128;15.422;2023-05-20T02:14:04;14.10;99.90
23869;DHT22;12115;47.128;15.422;2023-05-20T02:16:42;14.10;99.90
23869;DHT22;12115;47.128;15.422;2023-05-20T02:19:18;14.10;99.90
23869;DHT22;12115;47.128;15.422;2023-05-20T02:21:51;14.10;99.90
23869;DHT22;12115;47.128;15.422;2023-05-20T02:24:29;14.10;99.90
23869;DHT22;12115;47.128;15.422;2023-05-20T02:27:02;14.00;99.90
23869;DHT22;12115;47.128;15.422;2023-05-20T02:29:33;14.00;99.90
23869;DHT22;12115;47.128;15.422;2023-05-20T02:32:06;14.00;99.90
23869;DHT22;12115;47.128;15.422;2023-05-20T02:34:38;14.10;99.90
23869;DHT22;12115;47.128;15.422;2023-05-20T02:37:17;14.10;99.90
23869;DHT22;12115;47.128;15.422;2023-05-20T02:40:05;14.10;99.90
23869;DHT22;12115;47.128;15.422;2023-05-20T02:42:47;14.10;99.90
23869;DHT22;12115;47.128;15.422;2023-05-20T02:45:20;14.10;99.90
23869;DHT22;12115;47.128;15.422;2023-05-20T02:47:58;14.10;99.90
23869;DHT22;12115;47.128;15.422;2023-05-20T02:50:39;14.00;99.90
23869;DHT22;12115;47.128;15.422;2023-05-20T02:53:13;14.00;99.90
23869;DHT22;12115;47.128;15.422;2023-05-20T02:55:46;14.00;99.90
23869;DHT22;12115;47.128;15.422;2023-05-20T02:58:29;14.10;99.90
23869;DHT22;12115;47.128;15.422;2023-05-20T03:01:07;14.00;99.90
23869;DHT22;12115;47.128;15.422;2023-05-20T03:03:50;14.00;99.90
23869;DHT22;12115;47.128;15.422;2023-05-20T03:06:25;14.00;99.90
23869;DHT22;12115;47.128;15.422;2023-05-20T03:09:06;14.00;99.90
23869;DHT22;12115;47.128;15.422;2023-05-20T03:11:41;14.10;99.90
23869;DHT22;12115;47.128;15.422;2023-05-20T03:14:23;14.10;99.90
23869;DHT22;12115;47.128;15.422;2023-05-20T03:17:21;14.10;99.90
23869;DHT22;12115;47.128;15.422;2023-05-20T03:20:19;14.10;99.90
23869;DHT22;12115;47.128;15.422;2023-05-20T03:23:06;14.10;99.90
23869;DHT22;12115;47.128;15.422;2023-05-20T03:25:47;14.10;99.90
23869;DHT22;12115;47.128;15.422;2023-05-20T03:28:23;14.10;99.90
23869;DHT22;12115;47.128;15.422;2023-05-20T03:31:01;14.10;99.90
23869;DHT22;12115;47.128;15.422;2023-05-20T03:33:37;14.10;99.90
23869;DHT22;12115;47.128;15.422;2023-05-20T03:36:24;14.00;99.90
23869;DHT22;12115;47.128;15.422;2023-05-20T03:39:04;14.00;99.90
23869;DHT22;12115;47.128;15.422;2023-05-20T03:41:37;14.00;99.90
23869;DHT22;12115;47.128;15.422;2023-05-20T03:44:12;14.10;99.90
23869;DHT22;12115;47.128;15.422;2023-05-20T03:46:46;14.10;99.90
23869;DHT22;12115;47.128;15.422;2023-05-20T03:49:23;14.10;99.90
23869;DHT22;12115;47.128;15.422;2023-05-20T03:52:03;14.10;99.90
23869;DHT22;12115;47.128;15.422;2023-05-20T03:54:52;14.10;99.90
23869;DHT22;12115;47.128;15.422;2023-05-20T03:57:26;14.10;99.90
23869;DHT22;12115;47.128;15.422;2023-05-20T04:00:04;14.00;99.90
23869;DHT22;12115;47.128;15.422;2023-05-20T04:02:44;13.90;99.90
23869;DHT22;12115;47.128;15.422;2023-05-20T04:05:21;14.00;99.90
23869;DHT22;12115;47.128;15.422;2023-05-20T04:08:05;14.00;99.90
23869;DHT22;12115;47.128;15.422;2023-05-20T04:10:59;14.10;99.90
23869;DHT22;12115;47.128;15.422;2023-05-20T04:13:46;14.10;99.90
23869;DHT22;12115;47.128;15.422;2023-05-20T04:16:27;14.10;99.90
23869;DHT22;12115;47.128;15.422;2023-05-20T04:19:14;14.10;99.90
23869;DHT22;12115;47.128;15.422;2023-05-20T04:21:58;14.10;99.90
23869;DHT22;12115;47.128;15.422;2023-05-20T04:25:08;14.10;99.90
23869;DHT22;12115;47.128;15.422;2023-05-20T04:27:43;14.20;99.90
23869;DHT22;12115;47.128;15.422;2023-05-20T04:30:36;14.20;99.90
23869;DHT22;12115;47.128;15.422;2023-05-20T04:33:20;14.30;99.90
23869;DHT22;12115;47.128;15.422;2023-05-20T04:36:00;14.30;99.90
23869;DHT22;12115;47.128;15.422;2023-05-20T04:38:36;14.30;99.90
23869;DHT22;12115;47.128;15.422;2023-05-20T04:41:20;14.40;99.90
23869;DHT22;12115;47.128;15.422;2023-05-20T04:43:48;14.30;99.90
23869;DHT22;12115;47.128;15.422;2023-05-20T04:46:16;14.30;99.90
23869;DHT22;12115;47.128;15.422;2023-05-20T04:48:43;14.30;99.90
23869;DHT22;12115;47.128;15.422;2023-05-20T04:51:12;14.40;99.90
23869;DHT22;12115;47.128;15.422;2023-05-20T04:53:39;14.40;99.90
23869;DHT22;12115;47.128;15.422;2023-05-20T04:56:06;14.40;99.90
23869;DHT22;12115;47.128;15.422;2023-05-20T04:58:34;14.50;99.90
23869;DHT22;12115;47.128;15.422;2023-05-20T05:01:01;14.50;99.90
23869;DHT22;12115;47.128;15.422;2023-05-20T05:03:30;14.50;99.90
23869;DHT22;12115;47.128;15.422;2023-05-20T05:05:59;14.50;99.90
23869;DHT22;12115;47.128;15.422;2023-05-20T05:08:26;14.60;99.90
23869;DHT22;12115;47.128;15.422;2023-05-20T05:10:53;14.50;99.90
23869;DHT22;12115;47.128;15.422;2023-05-20T05:13:21;14.50;99.90
23869;DHT22;12115;47.128;15.422;2023-05-20T05:15:57;14.60;99.90
23869;DHT22;12115;47.128;15.422;2023-05-20T05:18:26;14.60;99.90
23869;DHT22;12115;47.128;15.422;2023-05-20T05:21:04;14.50;99.90
23869;DHT22;12115;47.128;15.422;2023-05-20T05:23:33;14.60;99.90
23869;DHT22;12115;47.128;15.422;2023-05-20T05:26:01;14.60;99.90
23869;DHT22;12115;47.128;15.422;2023-05-20T05:28:29;14.70;99.90
23869;DHT22;12115;47.128;15.422;2023-05-20T05:30:57;14.70;99.90
23869;DHT22;12115;47.128;15.422;2023-05-20T05:33:25;14.70;99.90
23869;DHT22;12115;47.128;15.422;2023-05-20T05:35:53;14.70;99.90
23869;DHT22;12115;47.128;15.422;2023-05-20T05:38:23;14.80;99.90
23869;DHT22;12115;47.128;15.422;2023-05-20T05:40:50;14.80;99.90
23869;DHT22;12115;47.128;15.422;2023-05-20T05:43:18;14.80;99.90
23869;DHT22;12115;47.128;15.422;2023-05-20T05:45:47;14.80;99.90
23869;DHT22;12115;47.128;15.422;2023-05-20T05:48:14;14.90;99.90
23869;DHT22;12115;47.128;15.422;2023-05-20T05:50:46;14.90;99.90
23869;DHT22;12115;47.128;15.422;2023-05-20T05:53:15;14.90;99.90
23869;DHT22;12115;47.128;15.422;2023-05-20T05:55:46;14.90;99.90
23869;DHT22;12115;47.128;15.422;2023-05-20T05:58:14;15.00;99.90
23869;DHT22;12115;47.128;15.422;2023-05-20T06:00:42;15.10;99.90
23869;DHT22;12115;47.128;15.422;2023-05-20T06:03:10;15.10;99.90
23869;DHT22;12115;47.128;15.422;2023-05-20T06:05:37;15.20;99.90
23869;DHT22;12115;47.128;15.422;2023-05-20T06:08:05;15.20;99.90
23869;DHT22;12115;47.128;15.422;2023-05-20T06:10:34;15.20;99.90
23869;DHT22;12115;47.128;15.422;2023-05-20T06:13:01;15.20;99.90
23869;DHT22;12115;47.128;15.422;2023-05-20T06:15:30;15.20;99.90
23869;DHT22;12115;47.128;15.422;2023-05-20T06:17:57;15.30;99.90
23869;DHT22;12115;47.128;15.422;2023-05-20T06:20:25;15.40;99.90
23869;DHT22;12115;47.128;15.422;2023-05-20T06:22:53;15.50;99.90
23869;DHT22;12115;47.128;15.422;2023-05-20T06:25:24;15.60;99.90
23869;DHT22;12115;47.128;15.422;2023-05-20T06:27:51;15.60;99.90
23869;DHT22;12115;47.128;15.422;2023-05-20T06:30:20;15.60;99.90
23869;DHT22;12115;47.128;15.422;2023-05-20T06:32:47;15.70;99.90
23869;DHT22;12115;47.128;15.422;2023-05-20T06:35:15;15.70;99.90
23869;DHT22;12115;47.128;15.422;2023-05-20T06:37:43;15.80;99.90
23869;DHT22;12115;47.128;15.422;2023-05-20T06:40:11;15.90;99.90
23869;DHT22;12115;47.128;15.422;2023-05-20T06:42:39;15.90;99.90
23869;DHT22;12115;47.128;15.422;2023-05-20T06:45:07;16.10;99.90
23869;DHT22;12115;47.128;15.422;2023-05-20T06:47:54;16.10;99.90
23869;DHT22;12115;47.128;15.422;2023-05-20T06:50:23;16.30;99.90
23869;DHT22;12115;47.128;15.422;2023-05-20T06:52:51;16.40;99.90
23869;DHT22;12115;47.128;15.422;2023-05-20T06:55:19;16.50;99.90
23869;DHT22;12115;47.128;15.422;2023-05-20T06:57:46;16.50;99.90
23869;DHT22;12115;47.128;15.422;2023-05-20T07:00:16;16.60;99.90
23869;DHT22;12115;47.128;15.422;2023-05-20T07:02:45;16.60;99.90
23869;DHT22;12115;47.128;15.422;2023-05-20T07:05:13;16.70;99.90
23869;DHT22;12115;47.128;15.422;2023-05-20T07:07:41;16.80;99.90
23869;DHT22;12115;47.128;15.422;2023-05-20T07:10:08;16.90;99.90
23869;DHT22;12115;47.128;15.422;2023-05-20T07:12:36;16.90;99.90
23869;DHT22;12115;47.128;15.422;2023-05-20T07:15:04;17.00;99.90
23869;DHT22;12115;47.128;15.422;2023-05-20T07:17:32;17.10;99.90
23869;DHT22;12115;47.128;15.422;2023-05-20T07:20:00;17.20;99.90
23869;DHT22;12115;47.128;15.422;2023-05-20T07:22:29;17.20;99.90
23869;DHT22;12115;47.128;15.422;2023-05-20T07:25:07;17.30;99.90
23869;DHT22;12115;47.128;15.422;2023-05-20T07:27:36;17.40;99.90
23869;DHT22;12115;47.128;15.422;2023-05-20T07:30:04;17.50;99.90
23869;DHT22;12115;47.128;15.422;2023-05-20T07:32:35;17.50;99.90
23869;DHT22;12115;47.128;15.422;2023-05-20T07:35:02;17.60;99.90
23869;DHT22;12115;47.128;15.422;2023-05-20T07:37:30;17.60;99.90
23869;DHT22;12115;47.128;15.422;2023-05-20T07:39:58;17.60;99.90
23869;DHT22;12115;47.128;15.422;2023-05-20T07:42:26;17.70;99.90
23869;DHT22;12115;47.128;15.422;2023-05-20T07:44:57;17.70;99.90
23869;DHT22;12115;47.128;15.422;2023-05-20T07:47:25;17.70;99.90
23869;DHT22;12115;47.128;15.422;2023-05-20T07:49:53;17.80;99.90
23869;DHT22;12115;47.128;15.422;2023-05-20T07:52:20;17.90;99.90
23869;DHT22;12115;47.128;15.422;2023-05-20T07:54:48;17.90;99.90
23869;DHT22;12115;47.128;15.422;2023-05-20T07:57:16;17.90;99.90
23869;DHT22;12115;47.128;15.422;2023-05-20T07:59:44;17.90;99.90
23869;DHT22;12115;47.128;15.422;2023-05-20T08:02:11;17.90;99.90
23869;DHT22;12115;47.128;15.422;2023-05-20T08:04:40;18.00;99.90
23869;DHT22;12115;47.128;15.422;2023-05-20T08:07:07;18.00;99.90
23869;DHT22;12115;47.128;15.422;2023-05-20T08:09:42;18.00;99.90
23869;DHT22;12115;47.128;15.422;2023-05-20T08:12:10;18.20;99.90
23869;DHT22;12115;47.128;15.422;2023-05-20T08:14:39;18.10;99.90
23869;DHT22;12115;47.128;15.422;2023-05-20T08:17:07;18.10;99.90
23869;DHT22;12115;47.128;15.422;2023-05-20T08:19:36;18.20;99.90
23869;DHT22;12115;47.128;15.422;2023-05-20T08:22:04;18.30;99.90
23869;DHT22;12115;47.128;15.422;2023-05-20T08:24:32;18.40;99.90
23869;DHT22;12115;47.128;15.422;2023-05-20T08:26:59;18.40;99.90
23869;DHT22;12115;47.128;15.422;2023-05-20T08:29:28;18.50;99.90
23869;DHT22;12115;47.128;15.422;2023-05-20T08:31:56;18.50;99.90
23869;DHT22;12115;47.128;15.422;2023-05-20T08:34:25;18.50;99.90
23869;DHT22;12115;47.128;15.422;2023-05-20T08:36:53;18.50;99.90
23869;DHT22;12115;47.128;15.422;2023-05-20T08:39:22;18.60;99.90
23869;DHT22;12115;47.128;15.422;2023-05-20T08:41:50;18.70;99.90
23869;DHT22;12115;47.128;15.422;2023-05-20T08:44:18;18.70;99.90
23869;DHT22;12115;47.128;15.422;2023-05-20T08:46:47;18.70;99.90
23869;DHT22;12115;47.128;15.422;2023-05-20T08:49:17;18.80;99.90
23869;DHT22;12115;47.128;15.422;2023-05-20T08:51:45;18.70;99.90
23869;DHT22;12115;47.128;15.422;2023-05-20T08:54:14;18.90;99.90
23869;DHT22;12115;47.128;15.422;2023-05-20T08:56:43;19.10;99.90
23869;DHT22;12115;47.128;15.422;2023-05-20T08:59:10;19.20;99.90
23869;DHT22;12115;47.128;15.422;2023-05-20T09:01:41;19.40;99.90
23869;DHT22;12115;47.128;15.422;2023-05-20T09:04:11;19.50;99.90
23869;DHT22;12115;47.128;15.422;2023-05-20T09:06:46;19.40;99.90
23869;DHT22;12115;47.128;15.422;2023-05-20T09:09:14;19.50;99.90
23869;DHT22;12115;47.128;15.422;2023-05-20T09:11:42;19.40;99.90
23869;DHT22;12115;47.128;15.422;2023-05-20T09:14:09;19.50;99.90
23869;DHT22;12115;47.128;15.422;2023-05-20T09:16:39;19.60;99.90
23869;DHT22;12115;47.128;15.422;2023-05-20T09:19:07;19.60;99.90
23869;DHT22;12115;47.128;15.422;2023-05-20T09:21:36;19.60;99.90
23869;DHT22;12115;47.128;15.422;2023-05-20T09:24:05;19.60;99.90
23869;DHT22;12115;47.128;15.422;2023-05-20T09:26:33;19.60;99.90
23869;DHT22;12115;47.128;15.422;2023-05-20T09:29:00;19.50;99.90
23869;DHT22;12115;47.128;15.422;2023-05-20T09:31:30;19.60;99.90
23869;DHT22;12115;47.128;15.422;2023-05-20T09:34:00;19.90;99.90
23869;DHT22;12115;47.128;15.422;2023-05-20T09:36:28;20.00;99.90
23869;DHT22;12115;47.128;15.422;2023-05-20T09:39:00;20.00;99.90
23869;DHT22;12115;47.128;15.422;2023-05-20T09:41:42;20.10;99.90
23869;DHT22;12115;47.128;15.422;2023-05-20T09:44:13;20.20;99.90
23869;DHT22;12115;47.128;15.422;2023-05-20T09:46:42;20.10;99.90
23869;DHT22;12115;47.128;15.422;2023-05-20T09:49:12;20.10;99.90
23869;DHT22;12115;47.128;15.422;2023-05-20T09:51:41;20.10;99.90
23869;DHT22;12115;47.128;15.422;2023-05-20T09:54:11;20.10;99.90
23869;DHT22;12115;47.128;15.422;2023-05-20T09:56:40;20.10;99.90
23869;DHT22;12115;47.128;15.422;2023-05-20T09:59:08;20.00;99.90
23869;DHT22;12115;47.128;15.422;2023-05-20T10:01:36;20.00;99.90
23869;DHT22;12115;47.128;15.422;2023-05-20T10:04:05;20.10;99.90
23869;DHT22;12115;47.128;15.422;2023-05-20T10:06:59;20.00;99.90
23869;DHT22;12115;47.128;15.422;2023-05-20T10:18:18;20.50;99.90
23869;DHT22;12115;47.128;15.422;2023-05-20T10:20:48;20.80;99.90
23869;DHT22;12115;47.128;15.422;2023-05-20T10:25:50;21.20;99.90
23869;DHT22;12115;47.128;15.422;2023-05-20T10:28:35;21.40;99.90
23869;DHT22;12115;47.128;15.422;2023-05-20T10:31:16;21.40;99.90
23869;DHT22;12115;47.128;15.422;2023-05-20T10:33:45;21.40;99.90
23869;DHT22;12115;47.128;15.422;2023-05-20T10:36:27;21.30;99.90
23869;DHT22;12115;47.128;15.422;2023-05-20T10:38:59;21.20;99.90
23869;DHT22;12115;47.128;15.422;2023-05-20T10:41:29;21.20;99.90
23869;DHT22;12115;47.128;15.422;2023-05-20T10:44:04;21.30;99.90
23869;DHT22;12115;47.128;15.422;2023-05-20T10:46:33;21.30;99.90
23869;DHT22;12115;47.128;15.422;2023-05-20T10:49:21;21.20;99.90
23869;DHT22;12115;47.128;15.422;2023-05-20T10:51:53;21.10;99.90
23869;DHT22;12115;47.128;15.422;2023-05-20T10:54:21;21.10;99.90
23869;DHT22;12115;47.128;15.422;2023-05-20T10:56:51;21.20;99.90
23869;DHT22;12115;47.128;15.422;2023-05-20T10:59:20;21.30;99.90
23869;DHT22;12115;47.128;15.422;2023-05-20T11:01:48;21.20;99.90
23869;DHT22;12115;47.128;15.422;2023-05-20T11:04:16;21.30;99.90
23869;DHT22;12115;47.128;15.422;2023-05-20T11:06:49;21.40;99.90
23869;DHT22;12115;47.128;15.422;2023-05-20T11:09:18;21.40;99.90
23869;DHT22;12115;47.128;15.422;2023-05-20T11:11:45;21.40;99.90
23869;DHT22;12115;47.128;15.422;2023-05-20T11:14:13;21.40;99.90
23869;DHT22;12115;47.128;15.422;2023-05-20T11:16:41;21.40;99.90
23869;DHT22;12115;47.128;15.422;2023-05-20T11:19:14;21.40;99.90
23869;DHT22;12115;47.128;15.422;2023-05-20T11:21:46;21.50;99.90
23869;DHT22;12115;47.128;15.422;2023-05-20T11:24:23;21.50;99.90
23869;DHT22;12115;47.128;15.422;2023-05-20T11:26:52;21.60;99.90
23869;DHT22;12115;47.128;15.422;2023-05-20T11:29:20;21.40;99.90
23869;DHT22;12115;47.128;15.422;2023-05-20T11:31:49;21.30;99.90
23869;DHT22;12115;47.128;15.422;2023-05-20T11:34:23;21.40;99.90
23869;DHT22;12115;47.128;15.422;2023-05-20T11:36:56;21.40;99.90
23869;DHT22;12115;47.128;15.422;2023-05-20T11:39:27;21.50;99.90
23869;DHT22;12115;47.128;15.422;2023-05-20T11:41:58;21.50;99.90
23869;DHT22;12115;47.128;15.422;2023-05-20T11:44:25;21.60;99.90
23869;DHT22;12115;47.128;15.422;2023-05-20T11:46:59;21.60;99.90
23869;DHT22;12115;47.128;15.422;2023-05-20T11:49:27;21.80;99.90
23869;DHT22;12115;47.128;15.422;2023-05-20T11:51:55;21.90;99.90
23869;DHT22;12115;47.128;15.422;2023-05-20T11:54:23;22.00;99.90
23869;DHT22;12115;47.128;15.422;2023-05-20T11:56:53;22.00;99.90
23869;DHT22;12115;47.128;15.422;2023-05-20T11:59:23;22.10;99.90
23869;DHT22;12115;47.128;15.422;2023-05-20T12:01:50;22.10;99.90
23869;DHT22;12115;47.128;15.422;2023-05-20T12:04:18;22.10;99.90
23869;DHT22;12115;47.128;15.422;2023-05-20T12:06:46;22.00;99.90
23869;DHT22;12115;47.128;15.422;2023-05-20T12:09:13;22.00;99.90
23869;DHT22;12115;47.128;15.422;2023-05-20T12:11:41;21.80;99.90
23869;DHT22;12115;47.128;15.422;2023-05-20T12:14:10;21.90;99.90
23869;DHT22;12115;47.128;15.422;2023-05-20T12:16:38;22.00;99.90
23869;DHT22;12115;47.128;15.422;2023-05-20T12:19:05;22.10;99.90
23869;DHT22;12115;47.128;15.422;2023-05-20T12:21:35;22.20;99.90
23869;DHT22;12115;47.128;15.422;2023-05-20T12:24:02;22.30;99.90
23869;DHT22;12115;47.128;15.422;2023-05-20T12:26:33;22.30;99.90
23869;DHT22;12115;47.128;15.422;2023-05-20T12:29:01;22.30;99.90
23869;DHT22;12115;47.128;15.422;2023-05-20T12:31:29;22.20;99.90
23869;DHT22;12115;47.128;15.422;2023-05-20T12:34:00;22.10;99.40
23869;DHT22;12115;47.128;15.422;2023-05-20T12:36:28;22.00;99.90
23869;DHT22;12115;47.128;15.422;2023-05-20T12:38:55;22.10;99.90
23869;DHT22;12115;47.128;15.422;2023-05-20T12:41:22;22.10;99.90
23869;DHT22;12115;47.128;15.422;2023-05-20T12:43:50;22.00;99.80
23869;DHT22;12115;47.128;15.422;2023-05-20T12:46:17;22.10;99.90
23869;DHT22;12115;47.128;15.422;2023-05-20T12:48:44;22.00;99.30
23869;DHT22;12115;47.128;15.422;2023-05-20T12:51:12;22.10;99.80
23869;DHT22;12115;47.128;15.422;2023-05-20T12:53:39;22.10;99.60
23869;DHT22;12115;47.128;15.422;2023-05-20T12:56:07;22.00;99.30
23869;DHT22;12115;47.128;15.422;2023-05-20T12:58:34;22.10;99.90
23869;DHT22;12115;47.128;15.422;2023-05-20T13:01:02;22.10;99.90
23869;DHT22;12115;47.128;15.422;2023-05-20T13:03:29;22.00;99.30
23869;DHT22;12115;47.128;15.422;2023-05-20T13:05:57;22.00;99.90
23869;DHT22;12115;47.128;15.422;2023-05-20T13:08:26;21.90;99.90
23869;DHT22;12115;47.128;15.422;2023-05-20T13:10:54;21.90;99.90
23869;DHT22;12115;47.128;15.422;2023-05-20T13:13:23;22.00;99.90
23869;DHT22;12115;47.128;15.422;2023-05-20T13:15:50;22.10;99.90
23869;DHT22;12115;47.128;15.422;2023-05-20T13:18:18;22.10;98.30
23869;DHT22;12115;47.128;15.422;2023-05-20T13:20:47;22.10;99.70
23869;DHT22;12115;47.128;15.422;2023-05-20T13:23:15;22.00;98.20
23869;DHT22;12115;47.128;15.422;2023-05-20T13:25:43;21.90;98.00
23869;DHT22;12115;47.128;15.422;2023-05-20T13:28:11;21.90;99.00
23869;DHT22;12115;47.128;15.422;2023-05-20T13:30:43;22.00;98.60
23869;DHT22;12115;47.128;15.422;2023-05-20T13:33:10;22.10;99.20
23869;DHT22;12115;47.128;15.422;2023-05-20T13:35:38;22.20;98.90
23869;DHT22;12115;47.128;15.422;2023-05-20T13:38:05;22.10;97.90
23869;DHT22;12115;47.128;15.422;2023-05-20T13:40:32;22.20;98.00
23869;DHT22;12115;47.128;15.422;2023-05-20T13:43:00;22.20;97.80
23869;DHT22;12115;47.128;15.422;2023-05-20T13:45:27;22.30;98.20
23869;DHT22;12115;47.128;15.422;2023-05-20T13:47:55;22.20;97.80
23869;DHT22;12115;47.128;15.422;2023-05-20T13:50:24;22.20;98.40
23869;DHT22;12115;47.128;15.422;2023-05-20T13:52:51;22.20;98.60
23869;DHT22;12115;47.128;15.422;2023-05-20T13:55:19;22.20;99.00
23869;DHT22;12115;47.128;15.422;2023-05-20T13:57:50;22.10;97.40
23869;DHT22;12115;47.128;15.422;2023-05-20T14:00:21;22.00;97.10
23869;DHT22;12115;47.128;15.422;2023-05-20T14:02:48;22.00;97.10
23869;DHT22;12115;47.128;15.422;2023-05-20T14:05:16;21.90;97.90
23869;DHT22;12115;47.128;15.422;2023-05-20T14:07:44;22.00;98.60
23869;DHT22;12115;47.128;15.422;2023-05-20T14:10:12;22.00;98.70
23869;DHT22;12115;47.128;15.422;2023-05-20T14:12:39;22.10;99.60
23869;DHT22;12115;47.128;15.422;2023-05-20T14:15:09;22.10;99.10
23869;DHT22;12115;47.128;15.422;2023-05-20T14:17:36;22.10;99.10
23869;DHT22;12115;47.128;15.422;2023-05-20T14:20:06;22.20;99.70
23869;DHT22;12115;47.128;15.422;2023-05-20T14:22:44;22.20;99.50
23869;DHT22;12115;47.128;15.422;2023-05-20T14:25:12;22.20;99.70
23869;DHT22;12115;47.128;15.422;2023-05-20T14:27:39;22.20;99.60
23869;DHT22;12115;47.128;15.422;2023-05-20T14:30:08;22.00;99.20
23869;DHT22;12115;47.128;15.422;2023-05-20T14:32:41;22.00;99.70
23869;DHT22;12115;47.128;15.422;2023-05-20T14:35:15;21.90;99.80
23869;DHT22;12115;47.128;15.422;2023-05-20T14:37:45;22.00;99.80
23869;DHT22;12115;47.128;15.422;2023-05-20T14:40:13;21.90;99.90
23869;DHT22;12115;47.128;15.422;2023-05-20T14:42:41;21.90;99.90
23869;DHT22;12115;47.128;15.422;2023-05-20T14:45:10;21.90;99.90
23869;DHT22;12115;47.128;15.422;2023-05-20T14:47:39;22.00;99.90
23869;DHT22;12115;47.128;15.422;2023-05-20T14:50:13;22.00;99.90
23869;DHT22;12115;47.128;15.422;2023-05-20T14:52:44;22.00;99.90
23869;DHT22;12115;47.128;15.422;2023-05-20T14:55:17;21.90;99.90
23869;DHT22;12115;47.128;15.422;2023-05-20T14:57:46;21.90;99.90
23869;DHT22;12115;47.128;15.422;2023-05-20T15:00:19;21.80;99.90
23869;DHT22;12115;47.128;15.422;2023-05-20T15:02:46;21.70;99.90
23869;DHT22;12115;47.128;15.422;2023-05-20T15:05:15;21.70;99.90
23869;DHT22;12115;47.128;15.422;2023-05-20T15:07:44;21.70;99.90
23869;DHT22;12115;47.128;15.422;2023-05-20T15:10:12;21.70;99.90
23869;DHT22;12115;47.128;15.422;2023-05-20T15:12:40;21.70;99.90
23869;DHT22;12115;47.128;15.422;2023-05-20T15:15:08;21.70;99.90
23869;DHT22;12115;47.128;15.422;2023-05-20T15:17:36;21.60;99.90
23869;DHT22;12115;47.128;15.422;2023-05-20T15:20:04;21.70;99.90
23869;DHT22;12115;47.128;15.422;2023-05-20T15:22:31;21.80;99.90
23869;DHT22;12115;47.128;15.422;2023-05-20T15:24:59;21.80;99.90
23869;DHT22;12115;47.128;15.422;2023-05-20T15:27:26;21.80;99.90
23869;DHT22;12115;47.128;15.422;2023-05-20T15:29:54;21.80;99.90
23869;DHT22;12115;47.128;15.422;2023-05-20T15:32:21;21.80;99.90
23869;DHT22;12115;47.128;15.422;2023-05-20T15:34:49;21.80;99.90
23869;DHT22;12115;47.128;15.422;2023-05-20T15:37:16;21.80;99.90
23869;DHT22;12115;47.128;15.422;2023-05-20T15:39:44;21.80;99.90
23869;DHT22;12115;47.128;15.422;2023-05-20T15:42:11;21.70;99.90
23869;DHT22;12115;47.128;15.422;2023-05-20T15:44:39;21.70;99.90
23869;DHT22;12115;47.128;15.422;2023-05-20T15:47:07;21.70;99.90
23869;DHT22;12115;47.128;15.422;2023-05-20T15:49:35;21.70;99.90
23869;DHT22;12115;47.128;15.422;2023-05-20T15:52:02;21.70;99.90
23869;DHT22;12115;47.128;15.422;2023-05-20T15:54:30;21.80;99.90
23869;DHT22;12115;47.128;15.422;2023-05-20T15:56:59;21.80;99.90
23869;DHT22;12115;47.128;15.422;2023-05-20T15:59:26;21.80;99.90
23869;DHT22;12115;47.128;15.422;2023-05-20T16:01:54;21.70;99.90
23869;DHT22;12115;47.128;15.422;2023-05-20T16:04:21;21.70;99.90